• Join FlightAware (Why Join?)
  • Login
  • US Flag 
09:03PM EDT


 

Airport Tracker/Info


-or-


 

Live Flight TrackerFlight Track Log ✈ LMO5045 ✈ 17-Apr-2014 ✈ KPIE - KORL

Flight Track Log - Related Links

Times and Time Zones

All times are in EDT time to prevent confusion due to time zone crossing. See the LMO5045 flight status page for this flight to view local times or setup timezone preferences in your user account.

Time Position Orientation Groundspeed Altitude Reporting Facility
EDT Latitude Longitude Course Direction KTS MPH feet Rate Location/Type
03:40PM 27.9167 -82.7000 344° North 166 191 400  Level Tampa TRACON
03:41PM 27.9667 -82.7167 344° North 201 231 2,000 1,200 Climbing Tampa TRACON
03:42PM 28.0000 -82.6667 53° Northeast 220 253 3,000 480 Climbing Tampa TRACON
03:43PM 27.9833 -82.6000 106° East 240 276 3,000  Level Tampa TRACON
03:44PM 27.9667 -82.5167 103° East 236 272 3,000  Level Tampa TRACON
03:45PM 27.9667 -82.4500 90° East 234 269 3,000 420 Level Tampa TRACON
03:46PM 28.0000 -82.3833 60° Northeast 238 274 3,900 1,260 Climbing Tampa TRACON
03:47PM 28.0333 -82.3333 53° Northeast 227 261 5,600 1,500 Climbing Tampa TRACON
03:48PM 28.0833 -82.2833 41° Northeast 228 262 7,000 660 Climbing Tampa TRACON
03:49PM 28.1167 -82.2167 60° Northeast 272 313 7,000  Level Tampa TRACON
03:50PM 28.1667 -82.1500 50° Northeast 290 334 7,000 -120 Level Tampa TRACON
03:52PM 28.2667 -82.0167 50° Northeast 276 318 6,800 -60 Descending Orlando TRACON
03:53PM 28.3167 -81.9333 56° Northeast 279 321 6,900  Climbing Orlando TRACON
03:54PM 28.3333 -81.8667 74° East 276 318 6,800 -780 Descending Orlando TRACON
03:55PM 28.3833 -81.7667 60° Northeast 279 321 5,300 -1,620 Descending Orlando TRACON
03:56PM 28.4000 -81.7000 74° East 237 273 3,400 -1,800 Descending Orlando TRACON
03:57PM 28.4333 -81.6333 60° Northeast 234 269 1,900 -780 Descending Orlando TRACON
03:58PM 28.4500 -81.5667 74° East 180 207 1,900 -240 Level Orlando TRACON
03:59PM 28.4667 -81.5167 69° East 182 209 1,400 -300 Descending Orlando TRACON
04:00PM 28.5000 -81.4667 53° Northeast 166 191 1,400  Level Orlando TRACON
04:01PM 28.5167 -81.4167 69° East 164 189 1,400 -300 Level Orlando TRACON
04:02PM 28.5333 -81.3833 60° Northeast 139 160 900 -540 Descending Orlando TRACON
04:04PM 28.5455 -81.3329 66° East  Level Estimated
04:11PM 28.5455 -81.3329 66° East  Level Estimated
04:12PM 28.5455 -81.3329 130° Southeast  Level Estimated
04:13PM 28.5455 -81.3329 66° East  Level Estimated